Time;durP1;ratioP1;P1;durP2;ratioP2;P2;SDS_P1;SDS_P2;PMS_P1;PMS_P2;Temp;Humidity;BMP_temperature;BMP_pressure;BME280_temperature;BME280_humidity;BME280_pressure;Samples;Min_cycle;Max_cycle;Signal;HPM_P1;HPM_P2
2022/11/08 00:02:13;;;;;;;10.43;2.88;;;13.50;99.90;;;;;;5127137;27;20080;-49
2022/11/08 00:04:39;;;;;;;11.23;2.95;;;13.40;99.90;;;;;;5123988;27;20112;-49
2022/11/08 00:15:17;;;;;;;;;;;13.40;99.90;;;;;;5125804;27;20094;-49
2022/11/08 00:17:43;;;;;;;12.20;3.08;;;13.30;99.90;;;;;;5127115;27;19970;-50
2022/11/08 00:20:09;;;;;;;11.52;2.83;;;13.30;99.90;;;;;;5123320;27;20367;-52
2022/11/08 00:22:35;;;;;;;10.68;3.13;;;13.20;99.90;;;;;;5126544;27;20051;-49
2022/11/08 00:25:01;;;;;;;11.15;3.47;;;13.30;99.90;;;;;;5125703;27;20111;-53
2022/11/08 00:27:27;;;;;;;13.35;3.33;;;13.20;99.90;;;;;;5121674;27;20116;-51
2022/11/08 00:29:53;;;;;;;12.30;3.30;;;13.10;99.90;;;;;;5127614;27;20035;-50
2022/11/08 00:32:22;;;;;;;10.82;2.22;;;13.00;99.90;;;;;;5125295;27;20497;-53
2022/11/08 00:34:48;;;;;;;12.15;3.05;;;12.90;99.90;;;;;;5121887;27;20035;-49
2022/11/08 00:37:15;;;;;;;12.73;3.65;;;12.90;99.90;;;;;;5127503;27;20115;-48
2022/11/08 00:39:41;;;;;;;10.25;2.78;;;12.90;99.90;;;;;;5125534;27;20387;-49
2022/11/08 00:42:07;;;;;;;11.68;2.75;;;12.80;99.90;;;;;;5121626;27;20027;-50
2022/11/08 00:44:33;;;;;;;10.68;2.85;;;12.70;99.90;;;;;;5127257;27;20035;-49
2022/11/08 00:46:59;;;;;;;9.90;2.97;;;12.60;99.90;;;;;;5124654;27;20071;-52
2022/11/08 00:49:25;;;;;;;8.50;2.55;;;12.60;99.90;;;;;;5103247;27;20078;-51
2022/11/08 00:51:50;;;;;;;11.45;2.30;;;12.60;99.90;;;;;;5129074;27;20106;-52
2022/11/08 00:54:18;;;;;;;11.07;3.28;;;12.50;99.90;;;;;;5133981;27;20049;-50
2022/11/08 00:56:44;;;;;;;12.75;3.20;;;12.50;99.90;;;;;;5133931;27;20092;-49
2022/11/08 00:59:12;;;;;;;11.68;2.85;;;12.50;99.90;;;;;;5115941;27;20089;-52
2022/11/08 01:01:38;;;;;;;10.57;2.30;;;12.40;99.90;;;;;;5134495;27;20114;-48
2022/11/08 01:04:04;;;;;;;9.45;2.60;;;12.40;99.90;;;;;;5134996;27;20042;-50
2022/11/08 01:06:30;;;;;;;12.13;3.15;;;12.40;99.90;;;;;;5134683;27;20047;-48
2022/11/08 01:08:56;;;;;;;8.23;2.47;;;12.40;99.90;;;;;;5116547;27;20043;-48
2022/11/08 01:11:23;;;;;;;12.52;3.13;;;12.40;99.90;;;;;;5134582;27;20378;-51
2022/11/08 01:13:56;;;;;;;9.40;3.00;;;12.40;99.90;;;;;;5135740;27;20088;-48
2022/11/08 01:16:24;;;;;;;11.25;2.72;;;12.40;99.90;;;;;;5134801;27;20031;-51
2022/11/08 01:18:51;;;;;;;10.85;2.47;;;12.40;99.90;;;;;;5135035;27;20389;-53
2022/11/08 01:21:18;;;;;;;11.70;2.47;;;12.40;99.90;;;;;;5136408;27;20047;-50
2022/11/08 01:23:44;;;;;;;9.57;3.05;;;12.30;99.90;;;;;;5134331;27;20035;-49
2022/11/08 01:26:13;;;;;;;10.48;2.92;;;12.40;99.90;;;;;;5133842;27;20035;-51
2022/11/08 01:28:39;;;;;;;11.13;2.53;;;12.30;99.90;;;;;;5134320;27;20035;-51
2022/11/08 01:31:10;;;;;;;11.07;2.92;;;12.40;99.90;;;;;;5135503;27;20042;-52
2022/11/08 01:33:36;;;;;;;10.35;2.90;;;12.40;99.90;;;;;;5134593;27;20064;-51
2022/11/08 01:36:05;;;;;;;14.07;2.72;;;12.40;99.90;;;;;;5132996;27;20027;-49
2022/11/08 01:38:31;;;;;;;8.98;3.10;;;12.40;99.90;;;;;;5134780;27;20034;-51
2022/11/08 01:40:57;;;;;;;9.40;3.03;;;12.50;99.90;;;;;;5135575;27;20034;-51
2022/11/08 01:43:28;;;;;;;9.27;2.65;;;12.30;99.90;;;;;;5133760;27;21245;-49
2022/11/08 01:46:33;;;;;;;12.70;3.33;;;12.30;99.90;;;;;;5133242;27;20506;-48
2022/11/08 01:49:14;;;;;;;10.10;2.60;;;12.40;99.90;;;;;;5133822;27;20054;-51
2022/11/08 01:52:07;;;;;;;14.18;3.45;;;12.30;99.90;;;;;;5133479;27;20039;-50
2022/11/08 01:54:44;;;;;;;12.10;2.85;;;12.40;99.90;;;;;;5132779;27;20134;-51
2022/11/08 01:57:15;;;;;;;9.77;3.08;;;12.30;99.90;;;;;;5133434;27;20039;-50
2022/11/08 01:59:44;;;;;;;8.43;2.80;;;12.30;99.90;;;;;;5133761;27;20039;-48
2022/11/08 02:02:11;;;;;;;8.98;2.42;;;12.20;99.90;;;;;;5134308;27;20043;-50
2022/11/08 02:04:39;;;;;;;12.63;2.70;;;12.20;99.90;;;;;;5132972;27;20090;-51
2022/11/08 02:07:06;;;;;;;11.55;2.95;;;12.10;99.90;;;;;;5115868;27;20035;-52
2022/11/08 02:09:36;;;;;;;10.60;2.78;;;12.00;99.90;;;;;;5135488;27;20478;-52
2022/11/08 02:12:03;;;;;;;10.18;2.60;;;12.10;99.90;;;;;;5115840;27;20039;-51
2022/11/08 02:14:30;;;;;;;9.38;3.10;;;12.00;99.90;;;;;;5132586;27;20047;-51
2022/11/08 02:16:55;;;;;;;9.68;2.70;;;12.00;99.90;;;;;;5132833;27;20070;-49
2022/11/08 02:19:37;;;;;;;10.45;2.67;;;11.90;99.90;;;;;;5133030;27;20066;-49
2022/11/08 02:22:11;;;;;;;12.05;3.13;;;11.80;99.90;;;;;;5130514;27;20042;-51
2022/11/08 02:24:38;;;;;;;13.73;3.05;;;11.80;99.90;;;;;;5132227;27;20039;-53
2022/11/08 02:27:04;;;;;;;13.57;3.22;;;11.70;99.90;;;;;;5132247;27;20467;-49
2022/11/08 02:29:34;;;;;;;13.18;3.97;;;11.70;99.90;;;;;;5115655;27;20130;-50
2022/11/08 02:32:01;;;;;;;11.80;3.10;;;11.80;99.90;;;;;;5132099;27;20050;-48
2022/11/08 02:34:37;;;;;;;10.35;2.97;;;11.70;99.90;;;;;;5113932;27;20039;-54
2022/11/08 02:37:05;;;;;;;10.73;3.08;;;11.60;99.90;;;;;;5132321;27;20036;-51
2022/11/08 02:39:31;;;;;;;11.77;2.88;;;11.70;99.90;;;;;;5132823;27;20162;-50
2022/11/08 02:41:57;;;;;;;13.40;3.20;;;11.50;99.90;;;;;;5131250;27;20027;-53
2022/11/08 02:44:23;;;;;;;13.20;3.45;;;11.60;99.90;;;;;;5132572;27;20046;-52
2022/11/08 02:46:49;;;;;;;10.45;3.15;;;11.60;99.90;;;;;;5114350;27;20506;-50
2022/11/08 02:49:14;;;;;;;12.02;3.80;;;11.60;99.90;;;;;;5132344;27;20434;-52
2022/11/08 02:51:40;;;;;;;13.90;3.53;;;11.60;99.90;;;;;;5114061;27;20062;-53
2022/11/08 02:54:06;;;;;;;9.82;3.40;;;11.60;99.90;;;;;;5132355;27;20144;-52
2022/11/08 02:56:32;;;;;;;13.25;3.13;;;11.50;99.90;;;;;;5132176;27;20042;-53
2022/11/08 02:58:57;;;;;;;11.00;3.10;;;11.50;99.90;;;;;;5131531;27;20047;-49
2022/11/08 03:01:23;;;;;;;15.18;3.35;;;11.60;99.90;;;;;;5132320;27;20042;-53
2022/11/08 03:03:49;;;;;;;16.27;3.22;;;11.50;99.90;;;;;;5132823;27;20035;-50
2022/11/08 03:06:14;;;;;;;11.27;3.22;;;11.40;99.90;;;;;;5130829;27;20121;-51
2022/11/08 03:08:40;;;;;;;9.15;3.30;;;11.50;99.90;;;;;;5115623;27;21244;-52
2022/11/08 03:11:06;;;;;;;9.23;2.90;;;11.40;99.90;;;;;;5132822;27;20038;-51
2022/11/08 03:13:31;;;;;;;12.82;3.75;;;11.50;99.90;;;;;;5133262;27;20039;-51
2022/11/08 03:16:00;;;;;;;12.93;3.58;;;11.40;99.90;;;;;;5131541;27;20475;-54
2022/11/08 03:18:26;;;;;;;8.00;2.97;;;11.30;99.90;;;;;;5131541;27;20035;-52
2022/11/08 03:20:51;;;;;;;10.32;3.15;;;11.30;99.90;;;;;;5121260;27;20042;-49
2022/11/08 03:23:17;;;;;;;10.70;3.00;;;11.50;99.90;;;;;;5131722;27;20034;-49
2022/11/08 03:25:43;;;;;;;10.65;3.17;;;11.30;99.90;;;;;;5113726;27;20515;-51
2022/11/08 03:28:08;;;;;;;10.93;2.90;;;11.60;99.90;;;;;;5130827;27;20047;-48
2022/11/08 03:30:35;;;;;;;10.15;3.35;;;11.30;99.90;;;;;;5132254;27;20035;-48
2022/11/08 03:33:01;;;;;;;9.27;3.17;;;11.40;99.90;;;;;;5131824;27;20509;-48
2022/11/08 03:35:27;;;;;;;13.98;3.75;;;11.40;99.90;;;;;;5132167;27;20035;-50
2022/11/08 03:37:54;;;;;;;11.50;3.25;;;11.30;99.90;;;;;;5131838;27;20501;-48
2022/11/08 03:40:21;;;;;;;9.82;3.40;;;11.30;99.90;;;;;;5131707;27;20090;-50
2022/11/08 03:42:47;;;;;;;11.45;3.50;;;11.30;99.90;;;;;;5130741;27;20110;-53
2022/11/08 03:45:13;;;;;;;11.18;3.90;;;11.30;99.90;;;;;;5130949;27;20141;-51
2022/11/08 03:47:44;;;;;;;11.55;3.08;;;11.30;99.90;;;;;;5131320;27;20540;-49
2022/11/08 03:50:11;;;;;;;14.40;3.97;;;11.40;99.90;;;;;;5128792;27;20081;-50
2022/11/08 03:52:41;;;;;;;11.90;3.20;;;11.40;99.90;;;;;;5131444;27;20039;-50
2022/11/08 03:55:07;;;;;;;11.07;3.45;;;11.40;99.90;;;;;;5131663;27;20043;-47
2022/11/08 03:57:33;;;;;;;14.07;3.50;;;11.40;99.90;;;;;;5131632;27;20482;-50
2022/11/08 03:59:59;;;;;;;6.82;2.90;;;11.40;99.90;;;;;;5136408;27;20038;-52
2022/11/08 04:02:24;;;;;;;9.20;2.75;;;11.50;99.90;;;;;;5129776;27;20042;-48
2022/11/08 04:04:50;;;;;;;11.18;3.55;;;11.40;99.90;;;;;;5131055;27;20039;-51
2022/11/08 04:07:15;;;;;;;12.52;2.90;;;11.20;99.90;;;;;;5131106;27;20141;-49
2022/11/08 04:09:41;;;;;;;10.20;3.15;;;11.40;99.90;;;;;;5113670;27;20500;-50
2022/11/08 04:23:04;;;;;;;8.80;3.05;;;11.20;99.90;;;;;;5131994;27;20042;-51
2022/11/08 04:25:29;;;;;;;10.23;2.83;;;11.20;99.90;;;;;;5131430;27;20039;-52
2022/11/08 04:27:55;;;;;;;9.13;3.47;;;11.30;99.90;;;;;;5115843;27;20035;-48
2022/11/08 04:30:21;;;;;;;11.95;3.00;;;11.30;99.90;;;;;;5135143;27;20035;-52
2022/11/08 04:32:46;;;;;;;10.18;2.67;;;11.40;99.90;;;;;;5135030;27;20038;-53
2022/11/08 04:35:12;;;;;;;9.75;3.00;;;11.40;99.90;;;;;;5132759;27;20031;-52
2022/11/08 04:37:38;;;;;;;12.82;3.22;;;11.20;99.90;;;;;;5134897;27;20039;-48
2022/11/08 04:40:04;;;;;;;18.83;3.00;;;11.30;99.90;;;;;;5134748;27;20051;-50
2022/11/08 04:42:30;;;;;;;7.90;2.47;;;11.30;99.90;;;;;;5134911;27;20027;-50
2022/11/08 04:44:55;;;;;;;9.70;3.00;;;11.10;99.90;;;;;;5134534;27;20083;-51
2022/11/08 04:47:21;;;;;;;8.07;3.00;;;11.30;99.90;;;;;;5135033;27;20453;-49
2022/11/08 04:49:47;;;;;;;9.75;2.70;;;11.20;99.90;;;;;;5134687;27;20401;-49
2022/11/08 04:52:14;;;;;;;8.68;2.30;;;11.20;99.90;;;;;;5135130;27;20125;-50
2022/11/08 04:54:43;;;;;;;9.45;2.85;;;11.10;99.90;;;;;;5134715;27;20039;-51
2022/11/08 04:57:09;;;;;;;7.90;2.58;;;11.10;99.90;;;;;;5134547;27;20043;-50
2022/11/08 04:59:35;;;;;;;7.60;3.05;;;11.00;99.90;;;;;;5135306;27;20042;-49
2022/11/08 05:02:01;;;;;;;8.18;2.47;;;11.00;99.90;;;;;;5134823;27;20031;-49
2022/11/08 05:04:26;;;;;;;10.20;2.70;;;11.10;99.90;;;;;;5135622;27;20031;-51
2022/11/08 05:06:52;;;;;;;8.43;2.67;;;11.00;99.90;;;;;;5134961;27;20080;-51
2022/11/08 05:09:18;;;;;;;7.97;2.60;;;11.00;99.90;;;;;;5136299;27;20039;-52
2022/11/08 05:11:43;;;;;;;7.10;2.70;;;11.00;99.90;;;;;;5116479;27;20035;-48
2022/11/08 05:14:09;;;;;;;8.52;2.63;;;11.00;99.90;;;;;;5134853;27;20042;-51
2022/11/08 05:16:35;;;;;;;9.73;2.50;;;11.00;99.90;;;;;;5136078;27;20080;-51
2022/11/08 05:19:00;;;;;;;11.90;2.88;;;10.90;99.90;;;;;;5115571;27;20023;-52
2022/11/08 05:24:14;;;;;;;8.18;2.30;;;11.00;99.90;;;;;;5133199;27;20171;-52
2022/11/08 05:26:41;;;;;;;8.32;2.45;;;10.90;99.90;;;;;;5134089;27;20035;-51
2022/11/08 05:29:07;;;;;;;7.97;2.67;;;11.00;99.90;;;;;;5098222;27;20043;-51
2022/11/08 05:31:33;;;;;;;8.35;2.20;;;11.10;99.90;;;;;;5133774;27;20074;-52
2022/11/08 05:33:59;;;;;;;9.30;2.65;;;11.00;99.90;;;;;;5134224;27;20154;-50
2022/11/08 05:36:26;;;;;;;8.38;2.55;;;11.00;99.90;;;;;;5133793;27;20047;-49
2022/11/08 05:38:53;;;;;;;8.32;2.75;;;11.10;99.90;;;;;;5133938;27;20489;-48
2022/11/08 05:41:20;;;;;;;7.47;2.35;;;11.00;99.90;;;;;;5133605;27;20035;-51
2022/11/08 05:43:48;;;;;;;7.20;2.20;;;11.00;99.90;;;;;;5133937;27;20074;-51
2022/11/08 05:46:15;;;;;;;7.18;2.35;;;11.10;99.90;;;;;;5133293;27;20063;-50
2022/11/08 05:48:42;;;;;;;9.88;2.72;;;11.00;99.90;;;;;;5133769;27;20050;-48
2022/11/08 05:51:08;;;;;;;5.75;2.03;;;11.00;99.90;;;;;;5148377;27;20482;-52
2022/11/08 05:53:34;;;;;;;9.52;2.50;;;10.80;99.90;;;;;;5133384;27;20039;-50
2022/11/08 05:56:03;;;;;;;6.70;2.00;;;10.90;99.90;;;;;;5133910;27;20039;-52
2022/11/08 05:58:31;;;;;;;5.80;2.20;;;11.00;99.90;;;;;;5133656;27;20095;-51
2022/11/08 06:01:04;;;;;;;7.45;2.40;;;11.00;99.90;;;;;;5116121;27;20084;-52
2022/11/08 06:03:29;;;;;;;5.93;2.05;;;11.00;99.90;;;;;;5132056;27;20156;-49
2022/11/08 06:06:00;;;;;;;9.65;2.63;;;10.90;99.90;;;;;;5130526;27;20043;-49
2022/11/08 06:08:25;;;;;;;8.90;2.75;;;10.90;99.90;;;;;;5134058;27;20050;-50
2022/11/08 06:10:51;;;;;;;6.82;2.10;;;10.90;99.90;;;;;;5133881;27;20121;-51
2022/11/08 06:13:16;;;;;;;7.78;2.40;;;11.00;99.90;;;;;;5132110;27;20031;-51
2022/11/08 06:15:42;;;;;;;6.07;2.22;;;10.90;99.90;;;;;;5134311;27;20058;-51
2022/11/08 06:18:08;;;;;;;9.20;2.10;;;10.90;99.90;;;;;;5135407;27;20038;-48
2022/11/08 06:20:33;;;;;;;6.05;2.25;;;10.90;99.90;;;;;;5132838;27;20042;-49
2022/11/08 06:22:59;;;;;;;5.00;1.85;;;10.90;99.90;;;;;;5132701;27;20039;-51
2022/11/08 06:25:25;;;;;;;6.45;2.10;;;10.90;99.90;;;;;;5133049;27;20034;-50
2022/11/08 06:27:50;;;;;;;6.38;2.13;;;11.00;99.90;;;;;;5113930;27;20168;-52
2022/11/08 06:30:16;;;;;;;6.30;2.00;;;11.00;99.90;;;;;;5133780;27;20431;-49
2022/11/08 06:32:42;;;;;;;7.50;2.58;;;11.00;99.90;;;;;;5133449;27;20035;-49
2022/11/08 06:35:08;;;;;;;10.20;2.45;;;11.00;99.90;;;;;;5133206;27;20027;-50
2022/11/08 06:37:33;;;;;;;8.35;2.20;;;11.10;99.90;;;;;;5116043;27;20038;-52
2022/11/08 06:39:59;;;;;;;6.18;2.03;;;11.20;99.90;;;;;;5133046;27;20039;-48
2022/11/08 06:42:25;;;;;;;10.55;2.72;;;11.20;99.90;;;;;;5134326;27;20363;-50
2022/11/08 06:44:51;;;;;;;9.93;2.13;;;11.10;99.90;;;;;;5133528;27;20070;-50
2022/11/08 06:47:16;;;;;;;6.47;2.45;;;11.00;99.90;;;;;;5115907;27;20532;-51
2022/11/08 06:49:42;;;;;;;11.20;2.50;;;11.20;99.90;;;;;;5131678;27;20035;-52
2022/11/08 06:52:08;;;;;;;8.00;2.67;;;11.20;99.90;;;;;;5131260;27;20119;-50
2022/11/08 06:54:33;;;;;;;7.22;2.38;;;11.30;99.90;;;;;;5132298;27;20470;-52
2022/11/08 06:57:00;;;;;;;10.43;2.70;;;11.20;99.90;;;;;;5131159;27;20031;-51
2022/11/08 06:59:27;;;;;;;9.52;2.40;;;11.30;99.90;;;;;;5131848;27;20043;-48
2022/11/08 07:01:53;;;;;;;9.27;2.65;;;11.20;99.90;;;;;;5133069;27;20137;-50
2022/11/08 07:04:18;;;;;;;5.85;2.40;;;11.30;99.90;;;;;;5134287;27;20134;-52
2022/11/08 07:06:44;;;;;;;7.53;2.60;;;11.40;99.90;;;;;;5133060;27;20067;-50
2022/11/08 07:09:10;;;;;;;6.68;2.58;;;11.30;99.90;;;;;;5133767;27;20126;-47
2022/11/08 07:11:36;;;;;;;8.25;2.78;;;11.30;99.90;;;;;;5129049;27;20597;-49
2022/11/08 07:14:02;;;;;;;7.43;2.60;;;11.30;99.90;;;;;;5131787;27;20034;-51
2022/11/08 07:16:27;;;;;;;6.85;2.75;;;11.30;99.90;;;;;;5123348;27;20519;-51
2022/11/08 07:18:54;;;;;;;8.32;2.67;;;11.30;99.90;;;;;;5126173;27;20042;-51
2022/11/08 07:21:20;;;;;;;9.02;2.92;;;11.30;99.90;;;;;;5124326;27;20045;-48
2022/11/08 07:23:47;;;;;;;8.02;2.92;;;11.30;99.90;;;;;;5129007;27;20039;-52
2022/11/08 07:26:13;;;;;;;7.40;2.92;;;11.30;99.90;;;;;;5127854;27;20044;-50
2022/11/08 07:28:39;;;;;;;8.68;3.35;;;11.50;99.90;;;;;;5122706;27;20107;-50
2022/11/08 07:31:06;;;;;;;7.47;3.13;;;11.40;99.90;;;;;;5128640;27;20497;-47
2022/11/08 07:33:32;;;;;;;8.30;2.80;;;11.40;99.90;;;;;;5127673;27;20039;-52
2022/11/08 07:35:58;;;;;;;11.30;3.58;;;11.60;99.90;;;;;;5124894;27;20031;-48
2022/11/08 07:38:25;;;;;;;9.18;3.20;;;11.50;99.90;;;;;;5121765;27;20497;-51
2022/11/08 07:40:54;;;;;;;6.80;2.97;;;11.50;99.90;;;;;;5132363;27;20073;-53
2022/11/08 07:43:19;;;;;;;9.10;3.30;;;11.60;99.90;;;;;;5126028;27;20039;-49
2022/11/08 07:45:45;;;;;;;8.75;3.08;;;11.60;99.90;;;;;;5092575;27;20062;-52
2022/11/08 07:48:12;;;;;;;10.80;3.45;;;11.60;99.90;;;;;;5125039;27;20047;-49
2022/11/08 07:50:39;;;;;;;9.50;3.70;;;11.60;99.90;;;;;;5125053;27;20039;-53
2022/11/08 07:53:04;;;;;;;8.77;3.20;;;11.70;99.90;;;;;;5122545;27;20039;-52
2022/11/08 07:55:30;;;;;;;7.97;3.00;;;11.60;99.90;;;;;;5127255;27;20027;-50
2022/11/08 07:58:00;;;;;;;8.15;3.03;;;11.70;99.90;;;;;;5125830;27;20618;-52
2022/11/08 08:00:27;;;;;;;8.68;3.22;;;11.80;99.90;;;;;;5119882;27;20038;-50
2022/11/08 08:02:57;;;;;;;8.93;3.30;;;11.70;99.90;;;;;;5125364;27;20042;-47
2022/11/08 08:05:24;;;;;;;7.22;2.80;;;11.80;99.90;;;;;;5121210;27;20039;-49
2022/11/08 08:07:49;;;;;;;9.07;3.33;;;11.80;99.90;;;;;;5122316;27;20490;-52
2022/11/08 08:10:15;;;;;;;8.65;3.10;;;11.90;99.90;;;;;;5130348;27;20039;-50
2022/11/08 08:12:41;;;;;;;6.43;2.97;;;11.90;99.90;;;;;;5107063;27;20075;-50
2022/11/08 08:15:07;;;;;;;12.73;3.30;;;11.90;99.90;;;;;;5124569;27;20038;-50
2022/11/08 08:17:33;;;;;;;6.22;3.10;;;11.90;99.90;;;;;;5102560;27;20050;-51
2022/11/08 08:19:58;;;;;;;8.68;3.00;;;12.00;99.90;;;;;;5124229;27;20039;-50
2022/11/08 08:22:24;;;;;;;8.23;3.05;;;12.20;99.90;;;;;;5125698;27;20389;-50
2022/11/08 08:24:49;;;;;;;8.35;3.20;;;12.10;99.90;;;;;;5121268;27;20097;-51
2022/11/08 08:27:15;;;;;;;7.00;3.15;;;12.10;99.90;;;;;;5126316;27;20070;-50
2022/11/08 08:29:41;;;;;;;8.18;3.00;;;12.10;99.90;;;;;;5124226;27;20489;-49
2022/11/08 08:32:06;;;;;;;6.47;3.20;;;12.20;99.90;;;;;;5123112;27;20170;-48
2022/11/08 08:34:32;;;;;;;9.25;2.85;;;12.20;99.90;;;;;;5118697;27;20094;-50
2022/11/08 08:36:58;;;;;;;8.07;2.75;;;12.20;99.90;;;;;;5100993;27;20035;-51
2022/11/08 08:39:23;;;;;;;6.70;2.90;;;12.30;99.90;;;;;;5123744;27;20035;-50
2022/11/08 08:41:49;;;;;;;8.43;3.08;;;12.30;99.90;;;;;;5106281;27;20054;-50
2022/11/08 08:44:15;;;;;;;6.30;2.55;;;12.40;99.90;;;;;;5126318;27;20390;-50
2022/11/08 08:46:40;;;;;;;7.53;2.88;;;12.50;99.90;;;;;;5124684;27;20047;-51
2022/11/08 08:49:06;;;;;;;6.47;2.95;;;12.50;99.90;;;;;;5121276;27;20167;-49
2022/11/08 08:51:31;;;;;;;7.03;2.75;;;12.50;99.90;;;;;;5122450;27;20043;-50
2022/11/08 08:53:57;;;;;;;5.97;2.60;;;12.60;99.90;;;;;;5103479;27;20043;-52
2022/11/08 08:56:23;;;;;;;5.93;2.97;;;12.70;99.90;;;;;;5120610;27;20406;-50
2022/11/08 08:58:49;;;;;;;7.10;2.83;;;12.70;99.90;;;;;;5124142;27;20033;-50
2022/11/08 09:01:15;;;;;;;4.10;2.30;;;12.70;99.90;;;;;;5121097;27;20038;-50
2022/11/08 09:03:40;;;;;;;5.80;2.50;;;12.70;99.90;;;;;;5128581;27;20039;-49
2022/11/08 09:06:06;;;;;;;6.63;2.20;;;12.70;99.90;;;;;;5125945;27;20095;-51
2022/11/08 09:08:32;;;;;;;6.28;2.70;;;12.70;99.90;;;;;;5121783;27;20032;-52
2022/11/08 09:11:00;;;;;;;6.82;2.28;;;12.80;99.90;;;;;;5126261;27;20478;-49
2022/11/08 09:13:27;;;;;;;4.90;2.40;;;12.90;99.90;;;;;;5131528;27;20033;-52
2022/11/08 09:15:54;;;;;;;5.60;2.40;;;12.90;99.90;;;;;;5134531;27;20467;-49
2022/11/08 09:18:20;;;;;;;5.65;2.55;;;12.90;99.90;;;;;;5134576;27;20100;-51
2022/11/08 09:20:46;;;;;;;5.05;2.13;;;12.90;99.90;;;;;;5134816;27;20099;-50
2022/11/08 09:23:12;;;;;;;4.45;2.05;;;13.00;99.90;;;;;;5134656;27;20092;-51
2022/11/08 09:25:38;;;;;;;5.05;2.25;;;13.00;99.90;;;;;;5135519;27;20039;-50
2022/11/08 09:28:05;;;;;;;5.43;2.50;;;13.00;99.90;;;;;;5114865;27;20084;-50
2022/11/08 09:30:31;;;;;;;4.65;1.90;;;13.10;99.90;;;;;;5134266;27;20378;-52
2022/11/08 09:32:56;;;;;;;5.93;2.15;;;13.00;99.90;;;;;;5134550;27;20063;-48
2022/11/08 09:35:23;;;;;;;7.30;2.42;;;13.00;99.90;;;;;;5134837;27;20071;-49
2022/11/08 09:37:48;;;;;;;6.20;2.65;;;13.10;99.90;;;;;;5134370;27;20394;-49
2022/11/08 09:40:22;;;;;;;5.80;2.05;;;13.00;99.90;;;;;;5135125;27;20027;-49
2022/11/08 09:43:00;;;;;;;6.82;2.58;;;13.00;99.90;;;;;;5134383;27;20469;-49
2022/11/08 09:45:40;;;;;;;7.93;2.40;;;13.00;99.90;;;;;;5132952;27;20121;-49
2022/11/08 09:48:28;;;;;;;6.85;2.40;;;13.00;99.90;;;;;;5127623;27;20039;-51
2022/11/08 09:50:57;;;;;;;7.13;2.60;;;13.00;99.90;;;;;;5127794;27;20045;-51
2022/11/08 09:53:23;;;;;;;5.03;2.20;;;13.00;99.90;;;;;;5129849;27;20039;-50
2022/11/08 09:56:05;;;;;;;4.32;2.03;;;13.10;99.90;;;;;;5126785;27;20039;-49
2022/11/08 09:58:39;;;;;;;5.30;2.08;;;13.10;99.90;;;;;;5126552;27;20031;-48
2022/11/08 10:01:12;;;;;;;6.57;2.50;;;13.10;99.90;;;;;;5127876;27;20039;-52
2022/11/08 10:03:46;;;;;;;6.68;2.40;;;13.20;99.90;;;;;;5125646;27;20043;-48
2022/11/08 10:06:14;;;;;;;5.85;2.42;;;13.20;99.90;;;;;;5127989;27;20031;-52
2022/11/08 10:08:49;;;;;;;5.88;2.00;;;13.20;99.90;;;;;;5128792;27;20039;-50
2022/11/08 10:11:20;;;;;;;4.05;2.00;;;13.30;99.90;;;;;;5123656;27;20039;-51
2022/11/08 10:13:54;;;;;;;5.18;2.20;;;13.20;99.90;;;;;;5132863;27;20511;-50
2022/11/08 10:16:34;;;;;;;4.45;2.22;;;13.30;99.90;;;;;;5127347;27;20040;-49
2022/11/08 10:19:24;;;;;;;5.93;2.47;;;13.20;99.90;;;;;;5133681;27;20039;-52
2022/11/08 10:22:22;;;;;;;5.20;2.35;;;13.20;99.90;;;;;;5133010;27;20047;-51
2022/11/08 10:25:00;;;;;;;5.28;2.40;;;13.20;99.90;;;;;;5088043;27;20047;-50
2022/11/08 10:27:41;;;;;;;4.72;2.30;;;13.20;99.90;;;;;;5133561;27;20027;-50
2022/11/08 10:30:19;;;;;;;5.22;2.08;;;13.20;99.90;;;;;;5114518;27;20382;-50
2022/11/08 10:32:53;;;;;;;5.63;2.17;;;13.20;99.90;;;;;;5132737;27;20092;-48
2022/11/08 10:35:24;;;;;;;7.22;2.20;;;13.10;99.90;;;;;;5132967;27;20156;-47
2022/11/08 10:37:52;;;;;;;8.07;2.22;;;13.20;99.90;;;;;;5133047;27;20490;-49
2022/11/08 10:40:47;;;;;;;4.68;2.08;;;13.20;99.90;;;;;;5133407;27;20473;-50
2022/11/08 10:43:15;;;;;;;;;;;13.20;99.90;;;;;;5115036;27;20410;-50
2022/11/08 10:45:41;;;;;;;6.72;2.08;;;13.20;99.90;;;;;;5133481;27;19963;-51
2022/11/08 10:48:10;;;;;;;5.50;2.08;;;13.20;99.90;;;;;;5133173;27;20131;-49
2022/11/08 10:50:44;;;;;;;6.00;2.30;;;13.30;99.90;;;;;;5132972;27;20039;-49
2022/11/08 10:53:26;;;;;;;5.70;2.17;;;13.40;99.90;;;;;;5132326;27;20050;-51
2022/11/08 10:56:03;;;;;;;8.10;2.10;;;13.40;99.90;;;;;;5132831;27;20042;-50
2022/11/08 10:58:39;;;;;;;5.40;2.30;;;13.50;99.90;;;;;;5132090;27;20092;-51
2022/11/08 11:01:24;;;;;;;4.13;1.73;;;13.60;99.90;;;;;;5131587;27;20087;-50
2022/11/08 11:03:51;;;;;;;3.95;1.92;;;13.60;99.90;;;;;;5132417;27;20435;-49
2022/11/08 11:06:28;;;;;;;6.63;1.90;;;13.70;99.90;;;;;;5132419;27;20087;-50
2022/11/08 11:08:57;;;;;;;4.40;1.75;;;13.70;99.90;;;;;;5133629;27;20046;-50
2022/11/08 11:11:30;;;;;;;4.97;1.90;;;13.80;99.90;;;;;;5114329;27;20047;-52
2022/11/08 11:14:16;;;;;;;4.35;2.13;;;13.80;99.90;;;;;;5130324;27;20179;-52
2022/11/08 11:16:53;;;;;;;5.45;2.05;;;13.80;99.90;;;;;;5131746;27;20431;-51
2022/11/08 11:19:19;;;;;;;7.28;1.88;;;13.80;99.90;;;;;;5130180;27;20478;-50
2022/11/08 11:21:52;;;;;;;5.95;2.13;;;13.80;99.90;;;;;;5123549;27;20031;-50
2022/11/08 11:24:19;;;;;;;5.35;1.92;;;13.80;99.90;;;;;;5117689;27;20048;-51
2022/11/08 11:26:59;;;;;;;5.50;1.85;;;13.80;99.90;;;;;;5131634;27;20035;-50
2022/11/08 11:29:32;;;;;;;6.07;2.10;;;13.90;99.90;;;;;;5131238;27;20045;-52
2022/11/08 11:32:22;;;;;;;6.82;2.13;;;13.90;99.90;;;;;;5132729;27;20495;-50
2022/11/08 11:34:54;;;;;;;4.82;2.25;;;13.80;99.90;;;;;;5132586;27;20391;-49
2022/11/08 11:37:29;;;;;;;4.80;1.88;;;13.80;99.90;;;;;;5132250;27;20097;-48
2022/11/08 11:40:33;;;;;;;4.53;1.70;;;14.00;99.90;;;;;;5131650;27;20063;-50
2022/11/08 11:43:26;;;;;;;4.15;1.80;;;13.90;99.90;;;;;;5131269;27;20058;-49
2022/11/08 11:46:09;;;;;;;8.30;2.13;;;14.00;99.90;;;;;;5131675;27;21166;-49
2022/11/08 11:48:41;;;;;;;6.28;2.13;;;14.00;99.90;;;;;;5132404;27;20568;-51
2022/11/08 11:51:09;;;;;;;5.55;2.00;;;14.10;99.90;;;;;;5124575;27;20039;-50
2022/11/08 11:53:36;;;;;;;6.90;1.80;;;14.20;99.90;;;;;;5126049;27;20051;-50
2022/11/08 11:56:11;;;;;;;5.32;1.88;;;14.30;99.90;;;;;;5123293;27;20054;-48
2022/11/08 11:58:55;;;;;;;4.25;1.60;;;14.40;99.90;;;;;;5125485;27;20378;-50
2022/11/08 12:01:33;;;;;;;;;;;14.50;99.90;;;;;;5107056;27;20539;-48
2022/11/08 12:04:17;;;;;;;4.65;1.90;;;14.40;99.90;;;;;;5121360;27;19927;-49
2022/11/08 12:06:52;;;;;;;4.97;1.77;;;14.40;99.90;;;;;;5122621;27;20050;-50
2022/11/08 12:09:56;;;;;;;4.50;1.77;;;14.40;99.90;;;;;;5117332;27;20035;-51
2022/11/08 12:12:22;;;;;;;7.00;2.00;;;14.30;99.90;;;;;;5117051;27;20405;-51
2022/11/08 12:15:02;;;;;;;4.82;1.60;;;14.30;99.90;;;;;;5125197;27;20047;-51
2022/11/08 12:17:56;;;;;;;3.97;1.70;;;14.30;99.90;;;;;;5120578;27;20122;-48
2022/11/08 12:20:53;;;;;;;5.47;2.47;;;14.30;99.90;;;;;;5122243;27;20457;-49
2022/11/08 12:23:31;;;;;;;4.07;1.70;;;14.20;99.90;;;;;;5123419;27;20287;-51
2022/11/08 12:26:04;;;;;;;4.78;1.77;;;14.20;99.90;;;;;;5125674;27;20031;-50
2022/11/08 12:29:17;;;;;;;5.10;1.67;;;14.20;99.90;;;;;;5125252;27;20119;-51
2022/11/08 12:32:03;;;;;;;3.58;1.52;;;14.10;99.90;;;;;;5062258;27;20126;-52
2022/11/08 12:34:48;;;;;;;3.95;1.55;;;14.20;99.90;;;;;;5123372;27;20391;-48
2022/11/08 12:37:44;;;;;;;5.15;2.08;;;14.30;99.90;;;;;;5121405;27;20047;-51
2022/11/08 12:40:29;;;;;;;4.82;1.90;;;14.30;99.90;;;;;;5117934;27;20043;-48
2022/11/08 12:43:06;;;;;;;5.13;2.05;;;14.40;99.90;;;;;;5115757;27;20035;-51
2022/11/08 12:45:32;;;;;;;6.72;2.05;;;14.50;99.90;;;;;;5125364;27;20035;-48
2022/11/08 12:47:57;;;;;;;6.00;1.88;;;14.80;99.90;;;;;;5102751;27;20047;-50
2022/11/08 12:50:23;;;;;;;5.97;1.90;;;15.00;99.90;;;;;;5122312;27;20054;-49
2022/11/08 12:53:07;;;;;;;4.78;1.80;;;15.10;99.90;;;;;;5130417;27;20042;-50
2022/11/08 12:55:36;;;;;;;7.75;2.20;;;15.10;99.90;;;;;;5132726;27;20047;-50
2022/11/08 12:58:32;;;;;;;5.60;1.77;;;15.30;99.90;;;;;;5127349;27;20463;-49
2022/11/08 13:01:03;;;;;;;4.60;1.67;;;15.50;99.90;;;;;;5098584;27;20039;-50
2022/11/08 13:03:32;;;;;;;4.95;2.00;;;15.80;99.90;;;;;;5129886;27;20486;-50
2022/11/08 13:06:07;;;;;;;5.13;1.73;;;15.80;99.90;;;;;;5134994;27;20126;-50
2022/11/08 13:08:59;;;;;;;4.68;1.80;;;15.80;99.90;;;;;;5136043;27;20069;-48
2022/11/08 13:11:56;;;;;;;7.57;1.98;;;15.80;99.90;;;;;;5125755;27;20035;-51
2022/11/08 13:14:23;;;;;;;4.95;1.90;;;15.80;99.90;;;;;;5134580;27;20088;-48
2022/11/08 13:17:07;;;;;;;4.40;1.73;;;15.80;99.90;;;;;;5135103;27;20454;-48
2022/11/08 13:19:54;;;;;;;6.72;1.90;;;15.90;99.90;;;;;;5133894;27;20385;-49
2022/11/08 13:22:32;;;;;;;7.20;1.92;;;16.00;99.90;;;;;;5131356;27;20099;-51